Terminal Aerodrome Forecast
Issued by NWS Charleston, WV

Current Version | Previous Version | Graphics & Text | Print | Product List | Glossary On
Versions: 1 2 3 4 5 6 7 8 9 10 11 12 13 14 15 16 17 18 19 20 21 22
000
FTUS41 KRLX 150200 AAA
TAFPKB
TAF AMD
KPKB 150233Z 1503/1524 15005KT P6SM BKN015 OVC025
     FM150500 33006KT 4SM -SHRA BR BKN007 OVC012
     FM150900 30011KT 2SM -SHRA BR BKN005 OVC010
     FM151100 32013KT 3SM -SHRA OVC008
     FM151300 33012KT 3SM BR OVC010
     FM151600 31011G16KT P6SM BKN010
     FM151700 31011G16KT P6SM BKN020
     FM152300 32010G16KT P6SM SCT030=

USA.gov is the U.S. government's official web portal to all federal, state and local government web resources and services.